Corning, New York
Current Conditions -  °F | °C
As of 10:53 AM on Thursday 29 Jan 2015 (Local Time) from KELM Reporting Station
Overcast Overcast  
Wind Chill:   Ceiling: 6500
Heat Index: 10°   Visibility: 8mi
Dew Point:   Wind: 5mph
Humidity: 80%   Direction: 200°SSW
Pressure: 30.11"   Gusts: NA
Location:  42.14°N, 77.05°W
Report Text: KELM 291553Z 20004KT 8SM OVC065 M12/M15 A3011 RMK AO2 SLP219 T11221150
Loading
Personal Weather Stations






























Interactive Weather Map New forecast layout! Learn more

10-Day Weather Forecast

Advertisements
Track Severe Weather on mobile